sensor_id;sensor_type;location;lat;lon;timestamp;P1;durP1;ratioP1;P2;durP2;ratioP2
13641;SDS011;6894;52.196;9.904;2023-06-10T00:01:13;5.37;;;4.03;;
13641;SDS011;6894;52.196;9.904;2023-06-10T00:03:40;7.53;;;4.03;;
13641;SDS011;6894;52.196;9.904;2023-06-10T00:06:08;5.57;;;3.90;;
13641;SDS011;6894;52.196;9.904;2023-06-10T00:08:35;5.93;;;4.23;;
13641;SDS011;6894;52.196;9.904;2023-06-10T00:11:02;4.60;;;3.33;;
13641;SDS011;6894;52.196;9.904;2023-06-10T00:13:29;3.60;;;3.30;;
13641;SDS011;6894;52.196;9.904;2023-06-10T00:15:56;5.50;;;3.60;;
13641;SDS011;6894;52.196;9.904;2023-06-10T00:18:24;5.50;;;3.70;;
13641;SDS011;6894;52.196;9.904;2023-06-10T00:20:51;5.73;;;3.80;;
13641;SDS011;6894;52.196;9.904;2023-06-10T00:23:20;3.77;;;3.37;;
13641;SDS011;6894;52.196;9.904;2023-06-10T00:25:47;4.90;;;3.50;;
13641;SDS011;6894;52.196;9.904;2023-06-10T00:28:14;5.60;;;3.33;;
13641;SDS011;6894;52.196;9.904;2023-06-10T00:30:41;4.47;;;3.23;;
13641;SDS011;6894;52.196;9.904;2023-06-10T00:33:07;4.13;;;3.40;;
13641;SDS011;6894;52.196;9.904;2023-06-10T00:35:36;5.63;;;3.40;;
13641;SDS011;6894;52.196;9.904;2023-06-10T00:38:02;4.60;;;3.40;;
13641;SDS011;6894;52.196;9.904;2023-06-10T00:40:29;3.90;;;3.37;;
13641;SDS011;6894;52.196;9.904;2023-06-10T00:42:56;4.13;;;3.47;;
13641;SDS011;6894;52.196;9.904;2023-06-10T00:45:23;5.13;;;3.40;;
13641;SDS011;6894;52.196;9.904;2023-06-10T00:47:49;6.30;;;3.00;;
13641;SDS011;6894;52.196;9.904;2023-06-10T00:50:16;6.30;;;3.40;;
13641;SDS011;6894;52.196;9.904;2023-06-10T00:52:45;6.73;;;3.93;;
13641;SDS011;6894;52.196;9.904;2023-06-10T00:55:13;4.17;;;2.90;;
13641;SDS011;6894;52.196;9.904;2023-06-10T00:57:41;5.70;;;3.40;;
13641;SDS011;6894;52.196;9.904;2023-06-10T01:00:09;4.23;;;3.00;;
13641;SDS011;6894;52.196;9.904;2023-06-10T01:02:37;5.57;;;3.40;;
13641;SDS011;6894;52.196;9.904;2023-06-10T01:05:04;3.90;;;3.17;;
13641;SDS011;6894;52.196;9.904;2023-06-10T01:07:34;5.07;;;2.53;;
13641;SDS011;6894;52.196;9.904;2023-06-10T01:10:05;6.27;;;2.80;;
13641;SDS011;6894;52.196;9.904;2023-06-10T01:12:39;5.37;;;3.90;;
13641;SDS011;6894;52.196;9.904;2023-06-10T01:15:13;7.77;;;3.53;;
13641;SDS011;6894;52.196;9.904;2023-06-10T01:17:52;4.10;;;3.27;;
13641;SDS011;6894;52.196;9.904;2023-06-10T01:20:20;4.77;;;3.20;;
13641;SDS011;6894;52.196;9.904;2023-06-10T01:22:48;4.00;;;3.00;;
13641;SDS011;6894;52.196;9.904;2023-06-10T01:25:15;4.27;;;2.97;;
13641;SDS011;6894;52.196;9.904;2023-06-10T01:27:42;14.37;;;3.70;;
13641;SDS011;6894;52.196;9.904;2023-06-10T01:30:14;4.57;;;3.13;;
13641;SDS011;6894;52.196;9.904;2023-06-10T01:32:45;6.13;;;3.37;;
13641;SDS011;6894;52.196;9.904;2023-06-10T01:35:14;6.77;;;3.97;;
13641;SDS011;6894;52.196;9.904;2023-06-10T01:37:43;6.90;;;3.63;;
13641;SDS011;6894;52.196;9.904;2023-06-10T01:40:13;7.33;;;3.47;;
13641;SDS011;6894;52.196;9.904;2023-06-10T01:42:41;4.33;;;3.03;;
13641;SDS011;6894;52.196;9.904;2023-06-10T01:45:08;8.47;;;3.47;;
13641;SDS011;6894;52.196;9.904;2023-06-10T01:47:35;4.67;;;3.30;;
13641;SDS011;6894;52.196;9.904;2023-06-10T01:50:02;5.97;;;3.80;;
13641;SDS011;6894;52.196;9.904;2023-06-10T01:52:29;6.00;;;3.17;;
13641;SDS011;6894;52.196;9.904;2023-06-10T01:54:55;6.13;;;4.17;;
13641;SDS011;6894;52.196;9.904;2023-06-10T01:57:23;4.47;;;3.07;;
13641;SDS011;6894;52.196;9.904;2023-06-10T01:59:50;5.53;;;3.47;;
13641;SDS011;6894;52.196;9.904;2023-06-10T02:02:17;3.33;;;2.97;;
13641;SDS011;6894;52.196;9.904;2023-06-10T02:04:43;6.97;;;3.23;;
13641;SDS011;6894;52.196;9.904;2023-06-10T02:07:10;6.00;;;3.70;;
13641;SDS011;6894;52.196;9.904;2023-06-10T02:09:37;6.33;;;3.53;;
13641;SDS011;6894;52.196;9.904;2023-06-10T02:12:04;9.70;;;3.83;;
13641;SDS011;6894;52.196;9.904;2023-06-10T02:14:33;4.23;;;3.83;;
13641;SDS011;6894;52.196;9.904;2023-06-10T02:17:00;7.10;;;3.57;;
13641;SDS011;6894;52.196;9.904;2023-06-10T02:19:27;6.03;;;3.80;;
13641;SDS011;6894;52.196;9.904;2023-06-10T02:21:53;7.87;;;4.00;;
13641;SDS011;6894;52.196;9.904;2023-06-10T02:24:20;5.27;;;4.00;;
13641;SDS011;6894;52.196;9.904;2023-06-10T02:26:47;5.00;;;3.77;;
13641;SDS011;6894;52.196;9.904;2023-06-10T02:29:13;4.50;;;3.43;;
13641;SDS011;6894;52.196;9.904;2023-06-10T02:31:41;6.07;;;4.00;;
13641;SDS011;6894;52.196;9.904;2023-06-10T02:34:08;5.90;;;3.57;;
13641;SDS011;6894;52.196;9.904;2023-06-10T02:36:35;6.37;;;3.90;;
13641;SDS011;6894;52.196;9.904;2023-06-10T02:39:02;5.80;;;4.00;;
13641;SDS011;6894;52.196;9.904;2023-06-10T02:41:29;5.80;;;4.27;;
13641;SDS011;6894;52.196;9.904;2023-06-10T02:43:56;6.27;;;3.70;;
13641;SDS011;6894;52.196;9.904;2023-06-10T02:46:22;8.40;;;3.67;;
13641;SDS011;6894;52.196;9.904;2023-06-10T02:48:51;5.80;;;3.93;;
13641;SDS011;6894;52.196;9.904;2023-06-10T02:51:17;6.13;;;3.80;;
13641;SDS011;6894;52.196;9.904;2023-06-10T02:53:44;5.40;;;3.63;;
13641;SDS011;6894;52.196;9.904;2023-06-10T02:56:11;5.33;;;3.67;;
13641;SDS011;6894;52.196;9.904;2023-06-10T02:58:38;5.20;;;3.57;;
13641;SDS011;6894;52.196;9.904;2023-06-10T03:01:05;5.10;;;3.50;;
13641;SDS011;6894;52.196;9.904;2023-06-10T03:03:32;7.80;;;4.07;;
13641;SDS011;6894;52.196;9.904;2023-06-10T03:06:00;7.17;;;4.27;;
13641;SDS011;6894;52.196;9.904;2023-06-10T03:08:27;5.83;;;4.10;;
13641;SDS011;6894;52.196;9.904;2023-06-10T03:10:54;8.67;;;4.03;;
13641;SDS011;6894;52.196;9.904;2023-06-10T03:13:22;7.07;;;4.20;;
13641;SDS011;6894;52.196;9.904;2023-06-10T03:15:49;6.07;;;4.20;;
13641;SDS011;6894;52.196;9.904;2023-06-10T03:18:16;10.27;;;4.20;;
13641;SDS011;6894;52.196;9.904;2023-06-10T03:20:43;5.17;;;4.23;;
13641;SDS011;6894;52.196;9.904;2023-06-10T03:23:11;5.50;;;4.40;;
13641;SDS011;6894;52.196;9.904;2023-06-10T03:25:38;7.50;;;4.23;;
13641;SDS011;6894;52.196;9.904;2023-06-10T03:28:05;4.73;;;3.50;;
13641;SDS011;6894;52.196;9.904;2023-06-10T03:30:31;5.20;;;3.97;;
13641;SDS011;6894;52.196;9.904;2023-06-10T03:32:58;6.70;;;3.47;;
13641;SDS011;6894;52.196;9.904;2023-06-10T03:35:25;7.50;;;4.47;;
13641;SDS011;6894;52.196;9.904;2023-06-10T03:37:52;6.17;;;4.33;;
13641;SDS011;6894;52.196;9.904;2023-06-10T03:40:20;6.43;;;4.23;;
13641;SDS011;6894;52.196;9.904;2023-06-10T03:42:47;7.77;;;4.10;;
13641;SDS011;6894;52.196;9.904;2023-06-10T03:45:14;7.03;;;4.30;;
13641;SDS011;6894;52.196;9.904;2023-06-10T03:47:40;6.60;;;4.67;;
13641;SDS011;6894;52.196;9.904;2023-06-10T03:50:08;7.73;;;4.40;;
13641;SDS011;6894;52.196;9.904;2023-06-10T03:52:37;9.37;;;4.40;;
13641;SDS011;6894;52.196;9.904;2023-06-10T03:55:04;7.13;;;4.33;;
13641;SDS011;6894;52.196;9.904;2023-06-10T03:57:33;10.23;;;4.37;;
13641;SDS011;6894;52.196;9.904;2023-06-10T04:00:00;8.87;;;5.23;;
13641;SDS011;6894;52.196;9.904;2023-06-10T04:02:31;5.83;;;4.37;;
13641;SDS011;6894;52.196;9.904;2023-06-10T04:04:59;8.20;;;4.40;;
13641;SDS011;6894;52.196;9.904;2023-06-10T04:07:26;6.00;;;4.50;;
13641;SDS011;6894;52.196;9.904;2023-06-10T04:09:53;8.00;;;4.70;;
13641;SDS011;6894;52.196;9.904;2023-06-10T04:12:20;11.93;;;4.97;;
13641;SDS011;6894;52.196;9.904;2023-06-10T04:14:48;7.37;;;4.17;;
13641;SDS011;6894;52.196;9.904;2023-06-10T04:17:16;6.63;;;3.93;;
13641;SDS011;6894;52.196;9.904;2023-06-10T04:19:43;8.40;;;4.53;;
13641;SDS011;6894;52.196;9.904;2023-06-10T04:22:09;7.97;;;4.97;;
13641;SDS011;6894;52.196;9.904;2023-06-10T04:24:36;6.23;;;4.53;;
13641;SDS011;6894;52.196;9.904;2023-06-10T04:27:03;8.03;;;4.83;;
13641;SDS011;6894;52.196;9.904;2023-06-10T04:29:30;4.43;;;3.73;;
13641;SDS011;6894;52.196;9.904;2023-06-10T04:31:58;6.17;;;4.20;;
13641;SDS011;6894;52.196;9.904;2023-06-10T04:34:26;7.53;;;4.60;;
13641;SDS011;6894;52.196;9.904;2023-06-10T04:36:53;9.13;;;4.43;;
13641;SDS011;6894;52.196;9.904;2023-06-10T04:39:20;8.90;;;5.43;;
13641;SDS011;6894;52.196;9.904;2023-06-10T04:41:47;6.93;;;4.50;;
13641;SDS011;6894;52.196;9.904;2023-06-10T04:44:14;8.93;;;5.50;;
13641;SDS011;6894;52.196;9.904;2023-06-10T04:46:41;6.43;;;4.77;;
13641;SDS011;6894;52.196;9.904;2023-06-10T04:49:09;7.30;;;4.40;;
13641;SDS011;6894;52.196;9.904;2023-06-10T04:51:35;6.87;;;4.67;;
13641;SDS011;6894;52.196;9.904;2023-06-10T04:54:02;7.83;;;5.37;;
13641;SDS011;6894;52.196;9.904;2023-06-10T04:56:29;7.40;;;4.63;;
13641;SDS011;6894;52.196;9.904;2023-06-10T04:58:56;6.60;;;5.00;;
13641;SDS011;6894;52.196;9.904;2023-06-10T05:01:23;6.90;;;5.00;;
13641;SDS011;6894;52.196;9.904;2023-06-10T05:03:50;7.70;;;4.70;;
13641;SDS011;6894;52.196;9.904;2023-06-10T05:06:18;7.50;;;5.37;;
13641;SDS011;6894;52.196;9.904;2023-06-10T05:08:44;8.00;;;4.73;;
13641;SDS011;6894;52.196;9.904;2023-06-10T05:11:11;7.07;;;4.43;;
13641;SDS011;6894;52.196;9.904;2023-06-10T05:13:38;7.33;;;4.70;;
13641;SDS011;6894;52.196;9.904;2023-06-10T05:16:05;7.00;;;5.20;;
13641;SDS011;6894;52.196;9.904;2023-06-10T05:18:32;7.43;;;5.00;;
13641;SDS011;6894;52.196;9.904;2023-06-10T05:21:00;6.60;;;5.50;;
13641;SDS011;6894;52.196;9.904;2023-06-10T05:23:28;8.73;;;5.17;;
13641;SDS011;6894;52.196;9.904;2023-06-10T05:25:55;7.90;;;4.90;;
13641;SDS011;6894;52.196;9.904;2023-06-10T05:28:22;11.03;;;5.93;;
13641;SDS011;6894;52.196;9.904;2023-06-10T05:30:48;10.13;;;5.00;;
13641;SDS011;6894;52.196;9.904;2023-06-10T05:33:15;8.70;;;5.23;;
13641;SDS011;6894;52.196;9.904;2023-06-10T05:35:42;7.43;;;5.37;;
13641;SDS011;6894;52.196;9.904;2023-06-10T05:38:09;8.03;;;5.90;;
13641;SDS011;6894;52.196;9.904;2023-06-10T05:40:37;7.60;;;5.30;;
13641;SDS011;6894;52.196;9.904;2023-06-10T05:43:04;8.47;;;5.83;;
13641;SDS011;6894;52.196;9.904;2023-06-10T05:45:30;7.27;;;5.27;;
13641;SDS011;6894;52.196;9.904;2023-06-10T05:47:57;8.67;;;6.50;;
13641;SDS011;6894;52.196;9.904;2023-06-10T05:50:24;9.57;;;5.87;;
13641;SDS011;6894;52.196;9.904;2023-06-10T05:52:51;8.67;;;5.63;;
13641;SDS011;6894;52.196;9.904;2023-06-10T05:55:18;11.73;;;6.10;;
13641;SDS011;6894;52.196;9.904;2023-06-10T05:57:46;7.70;;;6.30;;
13641;SDS011;6894;52.196;9.904;2023-06-10T06:00:13;8.13;;;5.73;;
13641;SDS011;6894;52.196;9.904;2023-06-10T06:02:40;8.27;;;5.70;;
13641;SDS011;6894;52.196;9.904;2023-06-10T06:05:07;9.83;;;6.77;;
13641;SDS011;6894;52.196;9.904;2023-06-10T06:07:34;6.53;;;5.77;;
13641;SDS011;6894;52.196;9.904;2023-06-10T06:10:01;9.07;;;5.80;;
13641;SDS011;6894;52.196;9.904;2023-06-10T06:12:28;8.17;;;6.27;;
13641;SDS011;6894;52.196;9.904;2023-06-10T06:14:56;6.77;;;5.33;;
13641;SDS011;6894;52.196;9.904;2023-06-10T06:17:22;8.47;;;6.03;;
13641;SDS011;6894;52.196;9.904;2023-06-10T06:19:49;10.60;;;6.40;;
13641;SDS011;6894;52.196;9.904;2023-06-10T06:22:16;8.03;;;6.47;;
13641;SDS011;6894;52.196;9.904;2023-06-10T06:24:45;8.57;;;5.97;;
13641;SDS011;6894;52.196;9.904;2023-06-10T06:27:12;8.57;;;5.83;;
13641;SDS011;6894;52.196;9.904;2023-06-10T06:29:38;7.90;;;5.67;;
13641;SDS011;6894;52.196;9.904;2023-06-10T06:32:07;9.93;;;5.93;;
13641;SDS011;6894;52.196;9.904;2023-06-10T06:34:34;7.83;;;5.37;;
13641;SDS011;6894;52.196;9.904;2023-06-10T06:37:01;8.37;;;5.87;;
13641;SDS011;6894;52.196;9.904;2023-06-10T06:39:27;11.77;;;6.17;;
13641;SDS011;6894;52.196;9.904;2023-06-10T06:41:54;8.73;;;5.13;;
13641;SDS011;6894;52.196;9.904;2023-06-10T06:44:21;9.17;;;5.83;;
13641;SDS011;6894;52.196;9.904;2023-06-10T06:46:47;10.13;;;5.57;;
13641;SDS011;6894;52.196;9.904;2023-06-10T06:49:15;7.43;;;6.07;;
13641;SDS011;6894;52.196;9.904;2023-06-10T06:51:42;7.90;;;5.10;;
13641;SDS011;6894;52.196;9.904;2023-06-10T06:54:09;8.50;;;5.80;;
13641;SDS011;6894;52.196;9.904;2023-06-10T06:56:37;9.70;;;5.67;;
13641;SDS011;6894;52.196;9.904;2023-06-10T06:59:03;7.97;;;5.70;;
13641;SDS011;6894;52.196;9.904;2023-06-10T07:01:32;7.40;;;5.30;;
13641;SDS011;6894;52.196;9.904;2023-06-10T07:03:59;7.67;;;5.80;;
13641;SDS011;6894;52.196;9.904;2023-06-10T07:06:27;9.73;;;6.40;;
13641;SDS011;6894;52.196;9.904;2023-06-10T07:08:54;8.70;;;5.60;;
13641;SDS011;6894;52.196;9.904;2023-06-10T07:11:21;7.77;;;5.23;;
13641;SDS011;6894;52.196;9.904;2023-06-10T07:13:47;9.63;;;5.40;;
13641;SDS011;6894;52.196;9.904;2023-06-10T07:16:14;7.87;;;5.00;;
13641;SDS011;6894;52.196;9.904;2023-06-10T07:18:41;8.13;;;5.63;;
13641;SDS011;6894;52.196;9.904;2023-06-10T07:21:07;8.37;;;5.63;;
13641;SDS011;6894;52.196;9.904;2023-06-10T07:23:35;8.43;;;5.97;;
13641;SDS011;6894;52.196;9.904;2023-06-10T07:26:02;8.00;;;5.73;;
13641;SDS011;6894;52.196;9.904;2023-06-10T07:28:29;6.77;;;5.30;;
13641;SDS011;6894;52.196;9.904;2023-06-10T07:30:56;7.47;;;5.30;;
13641;SDS011;6894;52.196;9.904;2023-06-10T07:33:22;9.67;;;5.63;;
13641;SDS011;6894;52.196;9.904;2023-06-10T07:35:49;8.30;;;4.90;;
13641;SDS011;6894;52.196;9.904;2023-06-10T07:38:16;8.77;;;5.33;;
13641;SDS011;6894;52.196;9.904;2023-06-10T07:40:45;9.97;;;5.93;;
13641;SDS011;6894;52.196;9.904;2023-06-10T07:43:11;6.90;;;5.90;;
13641;SDS011;6894;52.196;9.904;2023-06-10T07:45:39;9.67;;;5.67;;
13641;SDS011;6894;52.196;9.904;2023-06-10T07:48:06;7.53;;;4.90;;
13641;SDS011;6894;52.196;9.904;2023-06-10T07:50:33;6.73;;;5.17;;
13641;SDS011;6894;52.196;9.904;2023-06-10T07:53:00;8.57;;;5.83;;
13641;SDS011;6894;52.196;9.904;2023-06-10T07:55:27;6.87;;;5.37;;
13641;SDS011;6894;52.196;9.904;2023-06-10T07:57:55;6.43;;;5.83;;
13641;SDS011;6894;52.196;9.904;2023-06-10T08:00:21;10.63;;;6.10;;
13641;SDS011;6894;52.196;9.904;2023-06-10T08:02:48;6.87;;;5.10;;
13641;SDS011;6894;52.196;9.904;2023-06-10T08:05:15;8.80;;;6.03;;
13641;SDS011;6894;52.196;9.904;2023-06-10T08:07:42;7.77;;;5.33;;
13641;SDS011;6894;52.196;9.904;2023-06-10T08:10:09;8.57;;;5.40;;
13641;SDS011;6894;52.196;9.904;2023-06-10T08:12:36;8.30;;;5.47;;
13641;SDS011;6894;52.196;9.904;2023-06-10T08:15:05;7.90;;;5.17;;
13641;SDS011;6894;52.196;9.904;2023-06-10T08:17:32;9.87;;;5.23;;
13641;SDS011;6894;52.196;9.904;2023-06-10T08:20:00;11.63;;;5.87;;
13641;SDS011;6894;52.196;9.904;2023-06-10T08:22:27;8.63;;;5.33;;
13641;SDS011;6894;52.196;9.904;2023-06-10T08:24:54;7.07;;;5.87;;
13641;SDS011;6894;52.196;9.904;2023-06-10T08:27:22;6.23;;;5.43;;
13641;SDS011;6894;52.196;9.904;2023-06-10T08:29:48;5.77;;;5.20;;
13641;SDS011;6894;52.196;9.904;2023-06-10T08:32:16;7.77;;;5.80;;
13641;SDS011;6894;52.196;9.904;2023-06-10T08:34:43;7.53;;;5.23;;
13641;SDS011;6894;52.196;9.904;2023-06-10T08:37:10;8.97;;;5.73;;
13641;SDS011;6894;52.196;9.904;2023-06-10T08:39:37;6.83;;;6.13;;
13641;SDS011;6894;52.196;9.904;2023-06-10T08:42:04;6.73;;;5.30;;
13641;SDS011;6894;52.196;9.904;2023-06-10T08:44:37;8.33;;;5.20;;
13641;SDS011;6894;52.196;9.904;2023-06-10T08:47:06;9.90;;;6.13;;
13641;SDS011;6894;52.196;9.904;2023-06-10T08:49:40;6.67;;;4.90;;
13641;SDS011;6894;52.196;9.904;2023-06-10T08:52:09;7.43;;;5.50;;
13641;SDS011;6894;52.196;9.904;2023-06-10T08:54:40;7.83;;;5.33;;
13641;SDS011;6894;52.196;9.904;2023-06-10T08:57:09;8.03;;;5.43;;
13641;SDS011;6894;52.196;9.904;2023-06-10T08:59:36;6.00;;;5.00;;
13641;SDS011;6894;52.196;9.904;2023-06-10T09:02:03;10.57;;;5.53;;
13641;SDS011;6894;52.196;9.904;2023-06-10T09:04:31;6.30;;;5.07;;
13641;SDS011;6894;52.196;9.904;2023-06-10T09:06:59;6.88;;;5.32;;
13641;SDS011;6894;52.196;9.904;2023-06-10T09:09:28;5.97;;;4.70;;
13641;SDS011;6894;52.196;9.904;2023-06-10T09:11:56;6.78;;;4.88;;
13641;SDS011;6894;52.196;9.904;2023-06-10T09:14:22;8.50;;;5.63;;
13641;SDS011;6894;52.196;9.904;2023-06-10T09:16:49;7.77;;;5.63;;
13641;SDS011;6894;52.196;9.904;2023-06-10T09:19:16;8.82;;;6.20;;
13641;SDS011;6894;52.196;9.904;2023-06-10T09:21:43;8.35;;;5.20;;
13641;SDS011;6894;52.196;9.904;2023-06-10T09:24:11;8.02;;;5.10;;
13641;SDS011;6894;52.196;9.904;2023-06-10T09:26:38;8.25;;;5.38;;
13641;SDS011;6894;52.196;9.904;2023-06-10T09:29:05;9.38;;;5.35;;
13641;SDS011;6894;52.196;9.904;2023-06-10T09:31:33;8.55;;;5.05;;
13641;SDS011;6894;52.196;9.904;2023-06-10T09:34:05;5.85;;;4.93;;
13641;SDS011;6894;52.196;9.904;2023-06-10T09:36:33;7.03;;;5.50;;
13641;SDS011;6894;52.196;9.904;2023-06-10T09:38:59;6.03;;;5.38;;
13641;SDS011;6894;52.196;9.904;2023-06-10T09:41:33;5.95;;;5.32;;
13641;SDS011;6894;52.196;9.904;2023-06-10T09:44:00;6.82;;;5.10;;
13641;SDS011;6894;52.196;9.904;2023-06-10T09:46:30;7.82;;;5.43;;
13641;SDS011;6894;52.196;9.904;2023-06-10T09:48:57;8.55;;;6.28;;
13641;SDS011;6894;52.196;9.904;2023-06-10T09:51:25;5.63;;;5.00;;
13641;SDS011;6894;52.196;9.904;2023-06-10T09:53:52;9.25;;;5.72;;
13641;SDS011;6894;52.196;9.904;2023-06-10T09:56:19;7.88;;;6.30;;
13641;SDS011;6894;52.196;9.904;2023-06-10T09:58:49;7.57;;;5.57;;
13641;SDS011;6894;52.196;9.904;2023-06-10T10:01:19;7.45;;;5.97;;
13641;SDS011;6894;52.196;9.904;2023-06-10T10:03:46;7.32;;;5.85;;
13641;SDS011;6894;52.196;9.904;2023-06-10T10:06:14;7.43;;;5.90;;
13641;SDS011;6894;52.196;9.904;2023-06-10T10:08:41;8.10;;;5.75;;
13641;SDS011;6894;52.196;9.904;2023-06-10T10:11:08;8.57;;;6.00;;
13641;SDS011;6894;52.196;9.904;2023-06-10T10:13:35;7.40;;;5.28;;
13641;SDS011;6894;52.196;9.904;2023-06-10T10:16:06;7.90;;;6.18;;
13641;SDS011;6894;52.196;9.904;2023-06-10T10:18:38;5.32;;;4.78;;
13641;SDS011;6894;52.196;9.904;2023-06-10T10:21:09;8.15;;;5.63;;
13641;SDS011;6894;52.196;9.904;2023-06-10T10:23:40;8.30;;;5.15;;
13641;SDS011;6894;52.196;9.904;2023-06-10T10:26:14;7.63;;;6.40;;
13641;SDS011;6894;52.196;9.904;2023-06-10T10:28:44;7.75;;;5.45;;
13641;SDS011;6894;52.196;9.904;2023-06-10T10:31:15;8.75;;;5.75;;
13641;SDS011;6894;52.196;9.904;2023-06-10T10:33:46;6.78;;;5.40;;
13641;SDS011;6894;52.196;9.904;2023-06-10T10:36:19;6.50;;;4.90;;
13641;SDS011;6894;52.196;9.904;2023-06-10T10:38:46;6.85;;;5.45;;
13641;SDS011;6894;52.196;9.904;2023-06-10T10:41:14;6.13;;;5.10;;
13641;SDS011;6894;52.196;9.904;2023-06-10T10:43:42;7.38;;;5.85;;
13641;SDS011;6894;52.196;9.904;2023-06-10T10:46:11;5.68;;;5.07;;
13641;SDS011;6894;52.196;9.904;2023-06-10T10:48:41;7.35;;;5.55;;
13641;SDS011;6894;52.196;9.904;2023-06-10T10:51:09;5.93;;;4.70;;
13641;SDS011;6894;52.196;9.904;2023-06-10T10:53:36;6.32;;;5.47;;
13641;SDS011;6894;52.196;9.904;2023-06-10T10:56:07;6.95;;;5.40;;
13641;SDS011;6894;52.196;9.904;2023-06-10T10:58:38;6.97;;;5.25;;
13641;SDS011;6894;52.196;9.904;2023-06-10T11:01:11;9.20;;;5.80;;
13641;SDS011;6894;52.196;9.904;2023-06-10T11:03:44;7.68;;;5.20;;
13641;SDS011;6894;52.196;9.904;2023-06-10T11:06:12;6.88;;;5.32;;
13641;SDS011;6894;52.196;9.904;2023-06-10T11:08:47;7.70;;;5.30;;
13641;SDS011;6894;52.196;9.904;2023-06-10T11:11:19;6.43;;;5.32;;
13641;SDS011;6894;52.196;9.904;2023-06-10T11:14:06;5.90;;;5.25;;
13641;SDS011;6894;52.196;9.904;2023-06-10T11:16:38;5.68;;;5.18;;
13641;SDS011;6894;52.196;9.904;2023-06-10T11:19:08;5.90;;;4.95;;
13641;SDS011;6894;52.196;9.904;2023-06-10T11:24:24;7.15;;;5.60;;
13641;SDS011;6894;52.196;9.904;2023-06-10T11:26:52;6.00;;;5.40;;
13641;SDS011;6894;52.196;9.904;2023-06-10T11:29:18;8.32;;;5.53;;
13641;SDS011;6894;52.196;9.904;2023-06-10T11:31:46;6.78;;;6.00;;
13641;SDS011;6894;52.196;9.904;2023-06-10T11:34:21;6.22;;;4.95;;
13641;SDS011;6894;52.196;9.904;2023-06-10T11:36:52;9.55;;;5.88;;
13641;SDS011;6894;52.196;9.904;2023-06-10T11:39:20;6.63;;;4.70;;
13641;SDS011;6894;52.196;9.904;2023-06-10T11:41:48;8.02;;;5.38;;
13641;SDS011;6894;52.196;9.904;2023-06-10T11:44:16;7.10;;;5.53;;
13641;SDS011;6894;52.196;9.904;2023-06-10T11:46:43;6.72;;;5.60;;
13641;SDS011;6894;52.196;9.904;2023-06-10T11:49:10;6.50;;;5.47;;
13641;SDS011;6894;52.196;9.904;2023-06-10T11:51:39;5.53;;;5.03;;
13641;SDS011;6894;52.196;9.904;2023-06-10T11:54:13;6.00;;;5.30;;
13641;SDS011;6894;52.196;9.904;2023-06-10T11:56:41;7.07;;;5.88;;
13641;SDS011;6894;52.196;9.904;2023-06-10T11:59:07;6.53;;;5.20;;
13641;SDS011;6894;52.196;9.904;2023-06-10T12:01:34;5.78;;;5.25;;
13641;SDS011;6894;52.196;9.904;2023-06-10T12:04:03;6.15;;;5.32;;
13641;SDS011;6894;52.196;9.904;2023-06-10T12:06:39;5.63;;;5.13;;
13641;SDS011;6894;52.196;9.904;2023-06-10T12:09:07;8.60;;;5.25;;
13641;SDS011;6894;52.196;9.904;2023-06-10T12:11:40;5.93;;;5.28;;
13641;SDS011;6894;52.196;9.904;2023-06-10T12:14:08;6.45;;;5.70;;
13641;SDS011;6894;52.196;9.904;2023-06-10T12:16:35;7.65;;;4.75;;
13641;SDS011;6894;52.196;9.904;2023-06-10T12:19:02;5.63;;;4.95;;
13641;SDS011;6894;52.196;9.904;2023-06-10T12:21:29;7.07;;;5.82;;
13641;SDS011;6894;52.196;9.904;2023-06-10T12:24:05;5.93;;;5.38;;
13641;SDS011;6894;52.196;9.904;2023-06-10T12:26:34;7.13;;;5.57;;
13641;SDS011;6894;52.196;9.904;2023-06-10T12:29:12;6.28;;;5.68;;
13641;SDS011;6894;52.196;9.904;2023-06-10T12:31:58;7.22;;;6.20;;
13641;SDS011;6894;52.196;9.904;2023-06-10T12:34:29;6.28;;;5.68;;
13641;SDS011;6894;52.196;9.904;2023-06-10T12:36:57;6.20;;;5.60;;
13641;SDS011;6894;52.196;9.904;2023-06-10T12:39:25;6.43;;;5.82;;
13641;SDS011;6894;52.196;9.904;2023-06-10T12:41:52;5.82;;;5.32;;
13641;SDS011;6894;52.196;9.904;2023-06-10T12:44:27;5.85;;;5.10;;
13641;SDS011;6894;52.196;9.904;2023-06-10T12:46:58;6.43;;;5.80;;
13641;SDS011;6894;52.196;9.904;2023-06-10T12:49:25;6.97;;;6.28;;
13641;SDS011;6894;52.196;9.904;2023-06-10T12:51:53;6.30;;;5.68;;
13641;SDS011;6894;52.196;9.904;2023-06-10T12:54:20;7.60;;;5.85;;
13641;SDS011;6894;52.196;9.904;2023-06-10T12:56:48;6.32;;;5.53;;
13641;SDS011;6894;52.196;9.904;2023-06-10T12:59:15;6.00;;;5.47;;
13641;SDS011;6894;52.196;9.904;2023-06-10T13:01:42;6.18;;;5.50;;
13641;SDS011;6894;52.196;9.904;2023-06-10T13:04:09;6.05;;;5.43;;
13641;SDS011;6894;52.196;9.904;2023-06-10T13:06:36;10.73;;;6.00;;
13641;SDS011;6894;52.196;9.904;2023-06-10T13:09:03;6.30;;;5.20;;
13641;SDS011;6894;52.196;9.904;2023-06-10T13:11:31;6.15;;;5.50;;
13641;SDS011;6894;52.196;9.904;2023-06-10T13:14:00;7.57;;;5.93;;
13641;SDS011;6894;52.196;9.904;2023-06-10T13:16:27;6.60;;;6.00;;
13641;SDS011;6894;52.196;9.904;2023-06-10T13:18:55;6.60;;;5.97;;
13641;SDS011;6894;52.196;9.904;2023-06-10T13:21:21;8.15;;;6.53;;
13641;SDS011;6894;52.196;9.904;2023-06-10T13:23:48;8.20;;;6.05;;
13641;SDS011;6894;52.196;9.904;2023-06-10T13:26:16;6.85;;;6.10;;
13641;SDS011;6894;52.196;9.904;2023-06-10T13:28:42;7.22;;;6.55;;
13641;SDS011;6894;52.196;9.904;2023-06-10T13:31:11;8.35;;;6.25;;
13641;SDS011;6894;52.196;9.904;2023-06-10T13:33:37;7.20;;;5.95;;
13641;SDS011;6894;52.196;9.904;2023-06-10T13:36:05;6.53;;;5.80;;
13641;SDS011;6894;52.196;9.904;2023-06-10T13:38:32;7.07;;;6.45;;
13641;SDS011;6894;52.196;9.904;2023-06-10T13:40:59;6.50;;;5.88;;
13641;SDS011;6894;52.196;9.904;2023-06-10T13:43:26;7.28;;;6.20;;
13641;SDS011;6894;52.196;9.904;2023-06-10T13:45:53;5.53;;;5.05;;
13641;SDS011;6894;52.196;9.904;2023-06-10T13:48:21;7.82;;;5.72;;
13641;SDS011;6894;52.196;9.904;2023-06-10T13:50:48;6.95;;;5.75;;
13641;SDS011;6894;52.196;9.904;2023-06-10T13:53:15;9.07;;;5.60;;
13641;SDS011;6894;52.196;9.904;2023-06-10T13:55:42;8.55;;;5.85;;
13641;SDS011;6894;52.196;9.904;2023-06-10T13:58:08;6.13;;;5.63;;
13641;SDS011;6894;52.196;9.904;2023-06-10T14:00:35;6.68;;;6.07;;
13641;SDS011;6894;52.196;9.904;2023-06-10T14:03:02;6.18;;;5.68;;
13641;SDS011;6894;52.196;9.904;2023-06-10T14:05:30;6.60;;;5.88;;
13641;SDS011;6894;52.196;9.904;2023-06-10T14:07:58;6.63;;;6.03;;
13641;SDS011;6894;52.196;9.904;2023-06-10T14:10:24;8.43;;;6.00;;
13641;SDS011;6894;52.196;9.904;2023-06-10T14:12:51;6.20;;;5.55;;
13641;SDS011;6894;52.196;9.904;2023-06-10T14:15:18;5.45;;;4.95;;
13641;SDS011;6894;52.196;9.904;2023-06-10T14:17:45;7.40;;;6.13;;
13641;SDS011;6894;52.196;9.904;2023-06-10T14:20:12;6.15;;;5.53;;
13641;SDS011;6894;52.196;9.904;2023-06-10T14:22:40;6.40;;;5.85;;
13641;SDS011;6894;52.196;9.904;2023-06-10T14:25:07;6.68;;;5.95;;
13641;SDS011;6894;52.196;9.904;2023-06-10T14:27:34;6.25;;;5.65;;
13641;SDS011;6894;52.196;9.904;2023-06-10T14:30:01;6.13;;;5.60;;
13641;SDS011;6894;52.196;9.904;2023-06-10T14:32:29;5.90;;;5.40;;
13641;SDS011;6894;52.196;9.904;2023-06-10T14:34:56;6.57;;;5.60;;
13641;SDS011;6894;52.196;9.904;2023-06-10T14:37:23;5.93;;;5.35;;
13641;SDS011;6894;52.196;9.904;2023-06-10T14:39:51;5.82;;;5.32;;
13641;SDS011;6894;52.196;9.904;2023-06-10T14:42:17;6.95;;;5.78;;
13641;SDS011;6894;52.196;9.904;2023-06-10T14:44:44;7.72;;;6.25;;
13641;SDS011;6894;52.196;9.904;2023-06-10T14:47:11;8.82;;;5.55;;
13641;SDS011;6894;52.196;9.904;2023-06-10T14:49:37;6.55;;;5.95;;
13641;SDS011;6894;52.196;9.904;2023-06-10T14:52:04;5.82;;;5.22;;
13641;SDS011;6894;52.196;9.904;2023-06-10T14:54:31;6.38;;;5.78;;
13641;SDS011;6894;52.196;9.904;2023-06-10T14:56:59;6.25;;;5.57;;
13641;SDS011;6894;52.196;9.904;2023-06-10T14:59:26;8.32;;;5.85;;
13641;SDS011;6894;52.196;9.904;2023-06-10T15:01:52;6.53;;;5.88;;
13641;SDS011;6894;52.196;9.904;2023-06-10T15:04:19;5.85;;;5.35;;
13641;SDS011;6894;52.196;9.904;2023-06-10T15:06:46;6.40;;;5.90;;